Time;durP1;ratioP1;P1;durP2;ratioP2;P2;SDS_P1;SDS_P2;PMS_P1;PMS_P2;Temp;Humidity;BMP_temperature;BMP_pressure;BME280_temperature;BME280_humidity;BME280_pressure;Samples;Min_cycle;Max_cycle;Signal;HPM_P1;HPM_P2
2023/07/03 00:02:15;;;;;;;15.83;12.00;;;18.20;99.00;;;;;;4969676;28;21033;-72
2023/07/03 00:04:45;;;;;;;16.40;12.70;;;18.20;99.10;;;;;;4979353;28;20545;-71
2023/07/03 00:07:14;;;;;;;15.43;11.87;;;18.40;99.20;;;;;;4972230;28;20447;-71
2023/07/03 00:09:41;;;;;;;13.47;11.23;;;18.20;99.00;;;;;;4972735;28;20459;-71
2023/07/03 00:12:10;;;;;;;13.10;11.20;;;18.30;99.10;;;;;;4976012;28;20522;-71
2023/07/03 00:14:39;;;;;;;14.03;10.87;;;18.30;99.00;;;;;;4973661;28;20468;-70
2023/07/03 00:17:07;;;;;;;14.93;11.37;;;18.30;99.10;;;;;;4970987;28;20518;-70
2023/07/03 00:19:34;;;;;;;14.20;10.40;;;18.60;99.40;;;;;;4973417;28;20461;-70
2023/07/03 00:22:01;;;;;;;14.30;11.53;;;18.30;99.30;;;;;;4971971;28;20822;-71
2023/07/03 00:24:30;;;;;;;12.40;10.27;;;18.40;99.60;;;;;;4972763;28;20456;-71
2023/07/03 00:26:57;;;;;;;14.30;11.37;;;18.40;99.60;;;;;;4975503;28;20463;-71
2023/07/03 00:29:25;;;;;;;14.30;11.77;;;18.30;99.90;;;;;;4980688;28;20450;-72
2023/07/03 00:31:53;;;;;;;14.83;11.13;;;18.30;99.90;;;;;;4976883;28;20490;-72
2023/07/03 00:34:20;;;;;;;13.00;10.63;;;18.30;99.90;;;;;;4956941;28;20539;-72
2023/07/03 00:36:48;;;;;;;14.10;11.33;;;18.20;99.90;;;;;;4976561;28;20463;-72
2023/07/03 00:39:15;;;;;;;14.17;10.97;;;18.10;99.90;;;;;;4975367;28;20457;-72
2023/07/03 00:41:42;;;;;;;16.70;11.87;;;18.10;99.90;;;;;;4976705;28;20478;-71
2023/07/03 00:44:11;;;;;;;12.40;11.10;;;18.00;99.90;;;;;;4975253;28;20462;-70
2023/07/03 00:46:39;;;;;;;14.83;10.73;;;18.00;99.90;;;;;;4974240;28;20467;-71
2023/07/03 00:49:09;;;;;;;14.10;11.03;;;17.90;99.90;;;;;;4979546;28;20455;-71
2023/07/03 00:51:37;;;;;;;15.20;11.20;;;17.80;99.90;;;;;;4972939;28;20486;-72
2023/07/03 00:54:04;;;;;;;12.70;10.77;;;17.80;99.90;;;;;;4975956;28;20467;-72
2023/07/03 00:56:30;;;;;;;15.10;12.07;;;17.80;99.90;;;;;;4977265;28;20477;-71
2023/07/03 00:58:58;;;;;;;17.60;12.37;;;17.80;99.90;;;;;;4974951;28;20468;-72
2023/07/03 01:01:34;;;;;;;14.20;10.50;;;17.80;99.90;;;;;;4976899;28;20834;-72
2023/07/03 01:04:07;;;;;;;17.20;11.17;;;17.70;99.90;;;;;;4974323;28;20974;-72
2023/07/03 01:06:42;;;;;;;12.83;11.53;;;17.70;99.90;;;;;;4973340;28;20450;-72
2023/07/03 01:09:13;;;;;;;13.73;12.27;;;17.70;99.90;;;;;;4980123;28;20548;-72
2023/07/03 01:11:42;;;;;;;15.03;11.40;;;17.70;99.90;;;;;;4975045;28;20482;-72
2023/07/03 01:14:12;;;;;;;14.27;11.60;;;17.70;99.90;;;;;;4976760;28;21022;-72
2023/07/03 01:16:39;;;;;;;14.13;11.43;;;17.70;99.90;;;;;;4975877;28;20460;-71
2023/07/03 01:19:10;;;;;;;14.10;11.10;;;17.70;99.90;;;;;;4973483;28;20457;-71
2023/07/03 01:21:46;;;;;;;14.40;10.63;;;17.70;99.90;;;;;;4976773;28;21022;-71
2023/07/03 01:24:16;;;;;;;12.77;10.43;;;17.70;99.90;;;;;;4972844;28;20899;-72
2023/07/03 01:26:46;;;;;;;14.53;11.57;;;17.70;99.90;;;;;;4973927;28;20462;-72
2023/07/03 01:29:15;;;;;;;16.03;10.67;;;17.70;99.90;;;;;;4979900;28;20581;-72
2023/07/03 01:31:43;;;;;;;12.83;10.43;;;17.70;99.90;;;;;;4972356;28;20489;-72
2023/07/03 01:34:10;;;;;;;13.93;10.90;;;17.80;99.90;;;;;;4974172;28;20919;-72
2023/07/03 01:36:39;;;;;;;15.13;11.20;;;17.80;99.90;;;;;;4975660;28;20553;-71
2023/07/03 01:39:07;;;;;;;13.40;10.53;;;17.80;99.90;;;;;;4981160;28;20950;-72
2023/07/03 01:41:35;;;;;;;13.33;10.70;;;17.80;99.90;;;;;;4974699;28;20563;-71
2023/07/03 01:44:04;;;;;;;15.70;11.00;;;17.80;99.90;;;;;;4973652;28;20521;-71
2023/07/03 01:46:31;;;;;;;16.00;11.90;;;17.80;99.90;;;;;;4976264;28;20455;-72
2023/07/03 01:48:58;;;;;;;14.17;10.90;;;17.80;99.90;;;;;;4972177;28;20493;-71
2023/07/03 01:51:34;;;;;;;13.57;11.07;;;17.80;99.90;;;;;;4973208;28;20526;-71
2023/07/03 01:54:10;;;;;;;14.40;11.27;;;17.80;99.90;;;;;;4974241;28;20505;-70
2023/07/03 01:56:42;;;;;;;14.30;11.60;;;17.80;99.90;;;;;;4975319;28;21053;-70
2023/07/03 01:59:13;;;;;;;13.87;11.10;;;17.80;99.90;;;;;;4971817;28;20469;-72
2023/07/03 02:01:45;;;;;;;16.80;11.07;;;17.80;99.90;;;;;;4972368;28;20479;-71
2023/07/03 02:04:20;;;;;;;14.57;11.20;;;17.80;99.90;;;;;;4974531;28;20467;-71
2023/07/03 02:06:48;;;;;;;16.47;11.63;;;17.70;99.90;;;;;;4978285;28;20450;-70
2023/07/03 02:09:16;;;;;;;13.40;10.10;;;17.70;99.90;;;;;;4973593;28;20513;-71
2023/07/03 02:11:45;;;;;;;12.47;11.17;;;17.80;99.90;;;;;;4972307;28;20502;-71
2023/07/03 02:14:14;;;;;;;13.20;10.60;;;17.70;99.90;;;;;;4973577;28;21011;-71
2023/07/03 02:16:43;;;;;;;13.07;10.87;;;17.70;99.90;;;;;;4977609;28;20959;-71
2023/07/03 02:19:13;;;;;;;12.63;10.67;;;17.70;99.90;;;;;;4971854;28;20469;-72
2023/07/03 02:21:40;;;;;;;12.77;11.30;;;17.80;99.90;;;;;;4973651;28;20484;-72
2023/07/03 02:24:08;;;;;;;14.50;10.23;;;17.80;99.90;;;;;;4973650;28;20467;-72
2023/07/03 02:26:35;;;;;;;15.73;10.77;;;17.90;99.90;;;;;;4973436;28;20946;-71
2023/07/03 02:29:02;;;;;;;14.50;11.00;;;17.90;99.90;;;;;;4973194;28;20497;-71
2023/07/03 02:31:31;;;;;;;14.07;11.07;;;18.00;99.90;;;;;;4972000;28;20482;-71
2023/07/03 02:33:58;;;;;;;16.50;10.60;;;18.00;99.90;;;;;;4977306;28;20458;-71
2023/07/03 02:36:29;;;;;;;14.17;11.17;;;18.10;99.90;;;;;;4972961;28;20455;-71
2023/07/03 02:38:57;;;;;;;13.60;10.47;;;18.10;99.90;;;;;;4976280;28;20501;-73
2023/07/03 02:41:25;;;;;;;14.10;11.47;;;18.20;99.90;;;;;;4972072;28;20998;-70
2023/07/03 02:43:52;;;;;;;13.90;10.13;;;18.20;99.90;;;;;;4972532;28;20479;-71
2023/07/03 02:46:19;;;;;;;14.10;10.37;;;18.20;99.90;;;;;;4974775;28;20459;-71
2023/07/03 02:48:47;;;;;;;13.27;10.10;;;18.20;99.90;;;;;;4970973;28;21010;-72
2023/07/03 02:51:14;;;;;;;13.60;10.70;;;18.30;99.90;;;;;;4971893;28;22281;-72
2023/07/03 02:53:42;;;;;;;12.17;10.50;;;18.40;99.90;;;;;;4974575;28;20927;-71
2023/07/03 02:56:09;;;;;;;14.40;11.10;;;18.30;99.90;;;;;;4976415;28;20990;-71
2023/07/03 02:58:37;;;;;;;17.17;10.97;;;18.30;99.90;;;;;;4972252;28;20463;-71
2023/07/03 03:01:05;;;;;;;18.90;11.27;;;18.30;99.90;;;;;;4971731;28;20959;-70
2023/07/03 03:03:32;;;;;;;14.57;10.97;;;18.30;99.90;;;;;;4978251;28;21181;-71
2023/07/03 03:06:00;;;;;;;13.43;10.57;;;18.40;99.90;;;;;;4971743;28;20482;-71
2023/07/03 03:08:28;;;;;;;14.23;10.87;;;18.40;99.90;;;;;;4975424;28;20512;-71
2023/07/03 03:10:55;;;;;;;12.97;10.10;;;18.40;99.90;;;;;;4972422;28;20493;-71
2023/07/03 03:13:22;;;;;;;15.17;10.60;;;18.30;99.90;;;;;;4973028;28;20576;-71
2023/07/03 03:15:49;;;;;;;14.97;10.50;;;18.40;99.90;;;;;;4971792;28;20463;-71
2023/07/03 03:18:16;;;;;;;13.60;10.20;;;18.30;99.90;;;;;;4970953;28;20455;-71
2023/07/03 03:20:44;;;;;;;13.40;10.53;;;18.30;99.90;;;;;;4979536;28;20524;-72
2023/07/03 03:23:13;;;;;;;12.10;10.80;;;18.30;99.90;;;;;;4973644;28;20479;-72
2023/07/03 03:25:41;;;;;;;16.53;11.77;;;18.30;99.90;;;;;;4972932;28;20458;-72
2023/07/03 03:28:08;;;;;;;13.80;10.93;;;18.40;99.90;;;;;;4971802;28;20463;-72
2023/07/03 03:30:35;;;;;;;15.20;10.87;;;18.30;99.90;;;;;;4971470;28;20455;-72
2023/07/03 03:33:03;;;;;;;13.33;11.30;;;18.30;99.90;;;;;;4971289;28;20541;-73
2023/07/03 03:35:30;;;;;;;13.77;10.43;;;18.30;99.90;;;;;;4977110;28;20569;-71
2023/07/03 03:37:57;;;;;;;15.07;10.33;;;18.30;99.90;;;;;;4972723;28;20465;-71
2023/07/03 03:40:26;;;;;;;15.20;10.07;;;18.30;99.90;;;;;;4969242;28;20486;-71
2023/07/03 03:42:53;;;;;;;12.67;10.27;;;18.30;99.90;;;;;;4970355;28;20494;-72
2023/07/03 03:45:20;;;;;;;10.97;9.47;;;18.30;99.90;;;;;;4970832;28;20463;-70
2023/07/03 03:47:48;;;;;;;13.80;10.47;;;18.30;99.90;;;;;;4969805;28;20538;-71
2023/07/03 03:50:15;;;;;;;13.93;9.97;;;18.40;99.90;;;;;;4969373;28;20463;-70
2023/07/03 03:52:42;;;;;;;16.90;10.80;;;18.40;99.90;;;;;;4968768;28;20590;-71
2023/07/03 03:55:09;;;;;;;14.30;10.17;;;18.40;99.90;;;;;;4970861;28;20520;-71
2023/07/03 03:57:37;;;;;;;12.50;10.03;;;18.40;99.90;;;;;;4970615;28;20458;-71
2023/07/03 04:00:10;;;;;;;12.80;10.70;;;18.40;99.90;;;;;;4970077;28;20550;-71
2023/07/03 04:02:37;;;;;;;13.53;9.40;;;18.40;99.90;;;;;;4971588;28;20466;-71
2023/07/03 04:05:05;;;;;;;16.73;9.90;;;18.40;99.90;;;;;;4977945;28;20470;-71
2023/07/03 04:07:32;;;;;;;13.53;10.40;;;18.40;99.90;;;;;;4971556;28;20460;-72
2023/07/03 04:09:59;;;;;;;13.80;10.30;;;18.40;99.90;;;;;;4970294;28;20541;-72
2023/07/03 04:12:26;;;;;;;13.50;10.03;;;18.40;99.90;;;;;;4971056;28;20486;-72
2023/07/03 04:14:54;;;;;;;11.13;9.67;;;18.40;99.90;;;;;;4970741;28;20466;-76
2023/07/03 04:17:21;;;;;;;14.13;10.73;;;18.40;99.90;;;;;;4975497;28;20476;-76
2023/07/03 04:19:48;;;;;;;11.57;9.93;;;18.40;99.90;;;;;;4965872;28;20469;-75
2023/07/03 04:22:15;;;;;;;14.13;9.60;;;18.40;99.90;;;;;;4971705;28;20506;-76
2023/07/03 04:24:42;;;;;;;12.43;9.80;;;18.40;99.90;;;;;;4977178;28;20533;-76
2023/07/03 04:27:10;;;;;;;13.10;10.07;;;18.40;99.90;;;;;;4972943;28;20476;-75
2023/07/03 04:29:37;;;;;;;11.60;9.83;;;18.50;99.90;;;;;;4971150;28;20751;-76
2023/07/03 04:32:06;;;;;;;12.27;9.10;;;18.60;99.90;;;;;;4976136;28;20504;-70
2023/07/03 04:34:34;;;;;;;14.00;10.13;;;18.50;99.90;;;;;;4974732;28;20458;-76
2023/07/03 04:37:03;;;;;;;10.87;9.63;;;18.50;99.90;;;;;;4973915;28;20458;-71
2023/07/03 04:39:31;;;;;;;14.07;10.90;;;18.50;99.90;;;;;;4973624;28;20462;-73
2023/07/03 04:42:00;;;;;;;12.03;9.63;;;18.50;99.90;;;;;;4972733;28;20479;-69
2023/07/03 04:44:27;;;;;;;12.70;9.70;;;18.50;99.90;;;;;;4978069;28;20545;-69
2023/07/03 04:46:55;;;;;;;14.50;9.70;;;18.50;99.90;;;;;;4969651;28;20555;-68
2023/07/03 04:49:26;;;;;;;11.73;8.80;;;18.60;99.90;;;;;;4969006;28;20469;-70
2023/07/03 04:51:54;;;;;;;13.07;9.63;;;18.50;99.90;;;;;;4973184;28;20565;-71
2023/07/03 04:54:22;;;;;;;13.57;10.17;;;18.50;99.90;;;;;;4973990;28;20529;-72
2023/07/03 04:56:49;;;;;;;12.97;9.80;;;18.50;99.90;;;;;;4971479;28;20477;-67
2023/07/03 04:59:16;;;;;;;13.77;9.10;;;18.60;99.90;;;;;;4963809;28;20463;-71
2023/07/03 05:01:43;;;;;;;12.70;9.30;;;18.60;99.90;;;;;;4965477;28;20983;-72
2023/07/03 05:04:11;;;;;;;15.00;9.93;;;18.60;99.90;;;;;;4973587;28;20491;-75
2023/07/03 05:06:40;;;;;;;15.20;10.17;;;18.60;99.90;;;;;;4971897;28;21126;-72
2023/07/03 05:09:08;;;;;;;13.80;9.43;;;18.60;99.90;;;;;;4969969;28;20541;-70
2023/07/03 05:11:36;;;;;;;12.73;9.90;;;18.60;99.90;;;;;;4977557;28;20482;-71
2023/07/03 05:14:03;;;;;;;11.47;9.37;;;18.70;99.90;;;;;;4970276;28;20489;-70
2023/07/03 05:16:30;;;;;;;11.37;9.33;;;18.90;99.90;;;;;;4981055;28;20463;-69
2023/07/03 05:18:57;;;;;;;12.00;8.93;;;18.70;99.90;;;;;;4973466;28;20463;-70
2023/07/03 05:21:25;;;;;;;13.80;10.23;;;18.80;99.90;;;;;;4972030;28;20502;-70
2023/07/03 05:23:53;;;;;;;16.20;10.40;;;18.80;99.90;;;;;;4969264;28;20559;-69
2023/07/03 05:26:20;;;;;;;13.53;9.07;;;18.80;99.90;;;;;;4976328;28;20465;-70
2023/07/03 05:28:47;;;;;;;13.33;9.37;;;18.80;99.90;;;;;;4972742;28;20446;-70
2023/07/03 05:31:14;;;;;;;14.70;9.37;;;18.90;99.90;;;;;;4973287;28;20477;-70
2023/07/03 05:33:41;;;;;;;14.13;9.87;;;18.90;99.90;;;;;;4971804;28;20522;-68
2023/07/03 05:36:08;;;;;;;13.20;9.80;;;19.00;99.90;;;;;;4973077;28;20459;-71
2023/07/03 05:38:35;;;;;;;11.47;8.77;;;19.00;99.90;;;;;;4972333;28;20455;-69
2023/07/03 05:41:04;;;;;;;10.80;8.73;;;19.10;99.90;;;;;;4973232;28;20500;-69
2023/07/03 05:43:31;;;;;;;11.73;9.43;;;19.20;99.90;;;;;;4976225;28;20509;-69
2023/07/03 05:45:58;;;;;;;13.53;8.90;;;19.20;99.90;;;;;;4971552;28;20540;-69
2023/07/03 05:48:25;;;;;;;13.77;9.50;;;19.30;99.90;;;;;;4977223;28;20450;-69
2023/07/03 05:50:52;;;;;;;11.37;8.90;;;19.30;99.90;;;;;;4975258;28;20447;-69
2023/07/03 05:53:19;;;;;;;13.50;9.33;;;19.40;99.90;;;;;;4973850;28;20494;-70
2023/07/03 05:55:54;;;;;;;11.80;9.30;;;19.40;99.90;;;;;;4968610;28;20477;-69
2023/07/03 05:58:23;;;;;;;10.37;9.27;;;19.50;99.90;;;;;;4966947;28;20678;-69
2023/07/03 06:00:51;;;;;;;12.70;9.83;;;19.60;99.90;;;;;;4971955;28;20469;-70
2023/07/03 06:03:18;;;;;;;15.47;8.70;;;19.60;99.90;;;;;;4974043;28;20984;-69
2023/07/03 06:05:46;;;;;;;11.70;8.63;;;19.60;99.90;;;;;;4972636;28;20743;-70
2023/07/03 06:08:13;;;;;;;10.27;9.23;;;19.60;99.90;;;;;;4972986;28;20495;-69
2023/07/03 06:10:42;;;;;;;14.23;9.30;;;19.70;99.90;;;;;;4978421;28;20529;-70
2023/07/03 06:13:09;;;;;;;10.83;9.20;;;19.80;99.90;;;;;;4973134;28;20920;-68
2023/07/03 06:15:37;;;;;;;12.83;9.13;;;19.80;99.90;;;;;;4977569;28;20957;-68
2023/07/03 06:18:05;;;;;;;10.27;8.80;;;19.80;99.90;;;;;;4974214;28;20976;-68
2023/07/03 06:20:33;;;;;;;14.40;8.90;;;19.80;99.90;;;;;;4978314;28;20852;-69
2023/07/03 06:23:00;;;;;;;10.37;8.70;;;19.90;99.90;;;;;;4969630;28;20561;-67
2023/07/03 06:25:27;;;;;;;10.80;8.70;;;19.80;99.90;;;;;;4965239;28;20456;-69
2023/07/03 06:27:54;;;;;;;10.97;8.63;;;19.90;99.90;;;;;;4967882;28;20875;-62
2023/07/03 06:30:21;;;;;;;10.63;8.30;;;19.90;99.90;;;;;;4971558;28;20982;-63
2023/07/03 06:32:50;;;;;;;12.73;9.30;;;19.80;99.90;;;;;;4978965;28;20469;-64
2023/07/03 06:35:17;;;;;;;12.03;9.23;;;19.90;99.90;;;;;;4976933;28;20448;-66
2023/07/03 06:37:44;;;;;;;10.83;8.80;;;19.90;99.90;;;;;;4978599;28;20473;-68
2023/07/03 06:40:15;;;;;;;10.60;8.70;;;19.80;99.90;;;;;;4978194;28;20459;-65
2023/07/03 06:42:43;;;;;;;11.37;9.23;;;19.80;99.90;;;;;;4977762;28;20467;-64
2023/07/03 06:45:11;;;;;;;12.53;9.13;;;19.80;99.90;;;;;;4980713;28;20460;-67
2023/07/03 06:47:38;;;;;;;10.53;7.63;;;19.90;99.90;;;;;;4969742;28;21106;-68
2023/07/03 06:50:08;;;;;;;10.03;8.80;;;19.90;99.90;;;;;;4977504;28;20529;-67
2023/07/03 06:52:36;;;;;;;11.80;8.30;;;19.90;99.90;;;;;;4975814;28;20493;-68
2023/07/03 06:55:03;;;;;;;11.57;8.70;;;19.80;99.90;;;;;;4973464;28;20501;-67
2023/07/03 06:57:30;;;;;;;13.60;9.27;;;19.70;99.90;;;;;;4970924;28;21150;-67
2023/07/03 06:59:58;;;;;;;9.33;8.33;;;19.70;99.90;;;;;;4974465;28;20456;-67
2023/07/03 07:02:25;;;;;;;11.47;8.80;;;19.80;99.90;;;;;;4977519;28;20484;-68
2023/07/03 07:04:54;;;;;;;12.93;9.10;;;19.80;99.90;;;;;;4981005;28;20554;-68
2023/07/03 07:07:23;;;;;;;12.33;8.77;;;19.80;99.90;;;;;;4975882;28;20536;-67
2023/07/03 07:09:50;;;;;;;13.80;8.80;;;19.80;99.90;;;;;;4972680;28;20451;-66
2023/07/03 07:12:17;;;;;;;12.77;9.30;;;19.80;99.90;;;;;;4973231;28;20470;-67
2023/07/03 07:14:44;;;;;;;13.63;9.33;;;19.90;99.90;;;;;;4970030;28;20573;-66
2023/07/03 07:17:11;;;;;;;11.17;8.20;;;19.80;99.90;;;;;;4970806;28;20455;-67
2023/07/03 07:19:38;;;;;;;12.87;8.80;;;19.70;99.90;;;;;;4970008;28;20492;-67
2023/07/03 07:22:05;;;;;;;14.43;9.33;;;19.80;99.90;;;;;;4971875;28;20509;-66
2023/07/03 07:24:34;;;;;;;15.70;8.40;;;19.80;99.90;;;;;;4975836;28;20452;-66
2023/07/03 07:27:02;;;;;;;11.50;9.67;;;19.80;99.90;;;;;;4975835;28;20456;-67
2023/07/03 07:29:29;;;;;;;12.37;8.60;;;19.90;99.90;;;;;;4976646;28;20884;-68
2023/07/03 07:31:57;;;;;;;14.23;9.20;;;19.80;99.90;;;;;;4975045;28;20482;-67
2023/07/03 07:34:25;;;;;;;13.83;9.50;;;19.80;99.90;;;;;;4974658;28;20517;-67
2023/07/03 07:36:52;;;;;;;10.63;9.50;;;19.80;99.90;;;;;;4971308;28;20475;-78
2023/07/03 07:39:20;;;;;;;12.13;8.97;;;19.70;99.90;;;;;;4962095;28;20463;-67
2023/07/03 07:41:51;;;;;;;11.43;8.80;;;19.70;99.90;;;;;;4960951;28;20478;-66
2023/07/03 07:44:19;;;;;;;11.43;9.07;;;19.70;99.90;;;;;;4972958;28;20547;-66
2023/07/03 07:46:46;;;;;;;9.60;8.20;;;19.50;99.90;;;;;;4971558;28;20459;-67
2023/07/03 07:49:13;;;;;;;13.20;9.30;;;19.40;99.90;;;;;;4974846;28;20508;-67
2023/07/03 07:51:41;;;;;;;11.80;8.60;;;19.40;99.90;;;;;;4967595;28;20478;-67
2023/07/03 07:54:08;;;;;;;12.63;8.90;;;19.40;99.90;;;;;;4973844;28;20878;-67
2023/07/03 07:56:35;;;;;;;11.90;9.40;;;19.50;99.90;;;;;;4962997;28;20874;-66
2023/07/03 07:59:04;;;;;;;15.37;9.73;;;19.50;99.90;;;;;;4971992;28;20459;-67
2023/07/03 08:01:31;;;;;;;12.73;9.23;;;19.50;99.90;;;;;;4974590;28;20481;-67
2023/07/03 08:03:58;;;;;;;13.23;8.80;;;19.70;99.90;;;;;;4969174;28;20545;-66
2023/07/03 08:06:25;;;;;;;12.50;9.33;;;19.90;99.90;;;;;;4966666;28;20823;-67
2023/07/03 08:08:52;;;;;;;11.43;9.60;;;20.00;99.90;;;;;;4970316;28;20490;-67
2023/07/03 08:11:19;;;;;;;13.53;9.13;;;20.00;99.90;;;;;;4969819;28;20533;-67
2023/07/03 08:13:46;;;;;;;17.40;10.10;;;20.00;99.90;;;;;;4971022;28;20478;-67
2023/07/03 08:16:15;;;;;;;16.27;10.60;;;20.00;99.90;;;;;;4964638;28;20580;-67
2023/07/03 08:18:42;;;;;;;11.10;9.23;;;20.10;99.90;;;;;;4963004;28;20959;-67
2023/07/03 08:21:10;;;;;;;14.40;9.73;;;20.10;99.90;;;;;;4962293;28;20577;-67
2023/07/03 08:23:37;;;;;;;12.63;9.67;;;19.90;99.90;;;;;;4966012;28;20541;-67
2023/07/03 08:26:04;;;;;;;11.83;9.40;;;19.90;99.90;;;;;;4970183;28;20502;-67
2023/07/03 08:28:31;;;;;;;10.30;8.20;;;19.90;99.90;;;;;;4962824;28;20499;-65
2023/07/03 08:30:58;;;;;;;14.40;9.03;;;19.80;99.90;;;;;;4961931;28;20486;-67
2023/07/03 08:33:27;;;;;;;10.10;7.90;;;19.80;99.90;;;;;;4968552;28;21006;-67
2023/07/03 08:35:54;;;;;;;12.23;8.50;;;20.00;99.90;;;;;;4974621;28;20869;-67
2023/07/03 08:38:21;;;;;;;12.17;8.30;;;20.10;99.90;;;;;;4970852;28;20508;-67
2023/07/03 08:40:56;;;;;;;16.27;9.20;;;20.40;99.90;;;;;;4963896;28;20476;-67
2023/07/03 08:43:23;;;;;;;9.87;7.40;;;20.50;99.90;;;;;;4969271;28;20508;-67
2023/07/03 08:45:51;;;;;;;14.17;7.83;;;20.60;99.90;;;;;;4972182;28;20458;-67
2023/07/03 08:48:22;;;;;;;10.83;7.20;;;20.70;99.90;;;;;;4976541;28;20964;-67
2023/07/03 08:50:55;;;;;;;12.07;8.03;;;21.00;99.90;;;;;;4969432;28;20495;-68
2023/07/03 08:53:28;;;;;;;13.30;8.30;;;21.40;99.90;;;;;;4975878;28;20447;-71
2023/07/03 08:56:01;;;;;;;13.00;8.80;;;21.70;99.90;;;;;;4980171;28;20469;-70
2023/07/03 08:58:28;;;;;;;10.50;8.07;;;21.90;99.90;;;;;;4978804;28;20457;-67
2023/07/03 09:01:11;;;;;;;14.47;8.47;;;22.00;99.90;;;;;;4971990;28;20492;-68
2023/07/03 09:03:49;;;;;;;12.43;8.67;;;21.90;99.90;;;;;;4968528;28;20458;-68
2023/07/03 09:06:25;;;;;;;11.47;7.63;;;21.80;99.90;;;;;;4974223;28;20569;-67
2023/07/03 09:09:01;;;;;;;10.43;7.83;;;21.80;99.90;;;;;;4977313;28;20446;-67
2023/07/03 09:11:32;;;;;;;13.50;7.30;;;21.90;99.90;;;;;;4970743;28;20532;-68
2023/07/03 09:14:02;;;;;;;10.70;7.63;;;22.00;99.90;;;;;;4972282;28;20518;-66
2023/07/03 09:16:31;;;;;;;12.50;7.60;;;22.30;99.90;;;;;;4967925;28;22285;-66
2023/07/03 09:19:04;;;;;;;15.33;7.37;;;22.50;99.90;;;;;;4976031;28;20446;-66
2023/07/03 09:21:36;;;;;;;9.10;6.80;;;22.70;99.30;;;;;;4971795;28;20500;-66
2023/07/03 09:24:10;;;;;;;9.60;6.40;;;22.80;98.90;;;;;;4978622;28;20550;-66
2023/07/03 09:26:55;;;;;;;10.90;6.97;;;22.60;98.50;;;;;;4978226;28;20577;-67
2023/07/03 09:29:24;;;;;;;7.80;6.10;;;22.60;98.70;;;;;;4970522;28;20465;-67
2023/07/03 09:31:52;;;;;;;10.30;7.10;;;22.70;98.10;;;;;;4976797;28;20493;-67
2023/07/03 09:34:20;;;;;;;10.60;6.07;;;22.60;98.30;;;;;;4975094;28;20539;-65
2023/07/03 09:36:58;;;;;;;11.90;6.63;;;22.80;98.60;;;;;;4969267;28;20468;-67
2023/07/03 09:39:26;;;;;;;9.93;6.30;;;23.10;97.30;;;;;;4969628;28;20459;-67
2023/07/03 09:42:05;;;;;;;10.63;6.67;;;22.60;97.80;;;;;;4978770;28;20474;-67
2023/07/03 09:44:32;;;;;;;12.63;6.60;;;22.80;98.00;;;;;;4981477;28;22775;-68
2023/07/03 09:47:00;;;;;;;9.47;6.10;;;23.10;96.80;;;;;;4980328;28;20459;-65
2023/07/03 09:49:29;;;;;;;9.37;6.20;;;23.10;96.30;;;;;;4976593;28;20546;-66
2023/07/03 09:52:00;;;;;;;9.50;6.47;;;23.30;96.10;;;;;;4974610;28;20553;-66
2023/07/03 09:54:29;;;;;;;7.17;5.80;;;23.20;95.90;;;;;;4977707;28;20478;-66
2023/07/03 09:56:57;;;;;;;9.00;6.03;;;23.20;95.20;;;;;;4969464;28;20516;-66
2023/07/03 09:59:25;;;;;;;8.00;5.50;;;23.20;94.40;;;;;;4972837;28;20458;-66
2023/07/03 10:01:56;;;;;;;10.70;5.30;;;23.40;94.20;;;;;;4981312;28;20473;-66
2023/07/03 10:04:24;;;;;;;8.83;5.33;;;23.30;93.60;;;;;;4964618;28;21197;-66
2023/07/03 10:07:00;;;;;;;6.83;4.90;;;23.00;93.60;;;;;;4971074;28;20970;-66
2023/07/03 10:09:34;;;;;;;7.60;5.20;;;22.90;92.90;;;;;;4976605;28;20459;-67
2023/07/03 10:12:04;;;;;;;7.30;4.90;;;23.00;93.40;;;;;;4975230;28;20482;-67
2023/07/03 10:14:41;;;;;;;6.90;4.37;;;23.00;93.60;;;;;;4970263;28;21606;-67
2023/07/03 10:17:12;;;;;;;7.27;4.73;;;22.80;93.10;;;;;;4973419;28;20458;-68
2023/07/03 10:19:41;;;;;;;6.70;4.23;;;22.80;93.90;;;;;;4971765;28;20616;-68
2023/07/03 10:22:11;;;;;;;7.77;4.80;;;23.00;93.50;;;;;;4975033;28;20481;-68
2023/07/03 10:24:42;;;;;;;8.10;4.70;;;23.10;93.80;;;;;;4978743;28;20454;-68
2023/07/03 10:27:09;;;;;;;6.40;4.63;;;23.20;93.60;;;;;;4973830;28;20447;-68
2023/07/03 10:29:41;;;;;;;5.67;4.03;;;23.40;93.60;;;;;;4979051;28;20483;-68
2023/07/03 10:32:13;;;;;;;7.27;4.70;;;23.70;92.80;;;;;;4971676;28;20569;-68
2023/07/03 10:34:45;;;;;;;5.50;4.13;;;23.50;92.80;;;;;;4976450;28;20486;-66
2023/07/03 10:37:16;;;;;;;6.70;4.17;;;23.70;92.80;;;;;;4977648;28;20462;-66
2023/07/03 10:39:49;;;;;;;5.20;3.83;;;23.40;92.20;;;;;;4975089;28;20935;-67
2023/07/03 10:42:22;;;;;;;5.20;4.37;;;23.90;92.90;;;;;;4975127;28;20499;-67
2023/07/03 10:44:57;;;;;;;6.30;4.10;;;24.20;93.20;;;;;;4971462;28;20466;-67
2023/07/03 10:47:31;;;;;;;5.87;4.70;;;24.40;91.70;;;;;;4972107;28;20528;-67
2023/07/03 10:49:58;;;;;;;6.70;4.80;;;24.40;92.10;;;;;;4971495;28;20455;-67
2023/07/03 10:52:31;;;;;;;6.50;4.80;;;24.10;92.70;;;;;;4977124;28;21011;-67
2023/07/03 10:55:08;;;;;;;6.93;4.50;;;23.80;92.90;;;;;;4973146;28;20499;-67
2023/07/03 10:57:45;;;;;;;6.07;4.50;;;23.80;93.50;;;;;;4976452;28;21029;-66
2023/07/03 11:00:18;;;;;;;5.60;4.23;;;23.40;94.20;;;;;;4973792;28;20502;-67
2023/07/03 11:02:53;;;;;;;5.50;4.20;;;23.80;94.30;;;;;;4970288;28;20466;-66
2023/07/03 11:05:25;;;;;;;6.20;4.43;;;24.20;93.20;;;;;;4972192;28;20455;-67
2023/07/03 11:08:02;;;;;;;6.57;4.20;;;24.20;93.00;;;;;;4962928;28;20479;-68
2023/07/03 11:10:37;;;;;;;5.70;4.20;;;24.00;93.00;;;;;;4969224;28;20465;-68
2023/07/03 11:13:12;;;;;;;5.50;4.13;;;24.00;93.60;;;;;;4968840;28;20462;-67
2023/07/03 11:15:48;;;;;;;5.47;4.20;;;23.90;93.20;;;;;;4970265;28;20486;-68
2023/07/03 11:18:49;;;;;;;7.67;4.70;;;23.80;93.70;;;;;;4964545;28;20572;-67
2023/07/03 11:21:29;;;;;;;5.00;3.90;;;24.20;93.00;;;;;;4971886;28;20598;-67
2023/07/03 11:24:08;;;;;;;7.73;3.97;;;24.00;93.30;;;;;;4968809;28;20459;-68
2023/07/03 11:26:39;;;;;;;9.70;5.10;;;24.30;93.10;;;;;;4973734;28;20461;-67
2023/07/03 11:29:08;;;;;;;6.87;4.90;;;24.60;92.80;;;;;;4974026;28;20458;-67
2023/07/03 11:31:38;;;;;;;5.33;4.20;;;24.70;93.70;;;;;;4971356;28;20584;-68
2023/07/03 11:34:06;;;;;;;8.50;5.20;;;25.00;93.60;;;;;;4969841;28;20558;-67
2023/07/03 11:36:41;;;;;;;6.70;5.07;;;25.40;92.50;;;;;;4972315;28;20493;-69
2023/07/03 11:39:19;;;;;;;8.43;5.03;;;25.10;92.50;;;;;;4969790;28;20480;-67
2023/07/03 11:41:50;;;;;;;8.50;4.60;;;24.90;92.80;;;;;;4970181;28;20561;-68
2023/07/03 11:44:20;;;;;;;6.27;5.17;;;24.50;93.40;;;;;;4969612;28;20469;-67
2023/07/03 11:46:58;;;;;;;8.00;4.10;;;24.20;93.90;;;;;;4974326;28;20462;-67
2023/07/03 11:49:30;;;;;;;7.47;4.83;;;23.60;94.10;;;;;;4977130;28;20458;-68
2023/07/03 11:52:00;;;;;;;6.90;4.07;;;23.70;94.50;;;;;;4977939;28;20487;-68
2023/07/03 11:54:31;;;;;;;8.37;4.20;;;24.10;94.10;;;;;;4975600;28;20538;-66
2023/07/03 11:57:07;;;;;;;5.80;3.80;;;24.60;93.40;;;;;;4971204;28;20557;-68
2023/07/03 11:59:40;;;;;;;6.63;3.80;;;25.20;92.90;;;;;;4972396;28;20476;-68
2023/07/03 12:02:46;;;;;;;6.37;4.13;;;25.80;92.60;;;;;;4966259;28;20475;-67
2023/07/03 12:05:51;;;;;;;6.03;3.80;;;26.20;92.00;;;;;;4976000;28;20481;-67
2023/07/03 12:08:44;;;;;;;7.43;3.93;;;26.40;91.50;;;;;;4967200;28;20546;-67
2023/07/03 12:11:14;;;;;;;7.33;3.90;;;25.90;91.80;;;;;;4970331;28;21021;-67
2023/07/03 12:13:52;;;;;;;7.90;4.40;;;26.00;91.50;;;;;;4965545;28;20643;-68
2023/07/03 12:16:25;;;;;;;7.77;4.13;;;26.40;91.40;;;;;;4968192;28;20497;-67
2023/07/03 12:19:06;;;;;;;6.93;3.93;;;26.80;91.20;;;;;;4972072;28;20470;-67
2023/07/03 12:21:36;;;;;;;5.50;4.10;;;27.30;90.30;;;;;;4972430;28;20550;-65
2023/07/03 12:24:21;;;;;;;5.73;4.00;;;27.30;89.70;;;;;;4977452;28;20978;-68
2023/07/03 12:26:56;;;;;;;7.50;3.77;;;27.40;88.20;;;;;;4976834;28;20857;-67
2023/07/03 12:29:23;;;;;;;5.60;3.13;;;27.40;87.30;;;;;;4970024;28;20469;-68
2023/07/03 12:31:58;;;;;;;5.03;3.00;;;27.50;86.10;;;;;;4970496;28;21221;-68
2023/07/03 12:34:26;;;;;;;5.97;3.30;;;27.30;85.30;;;;;;4966329;28;20996;-66
2023/07/03 12:36:59;;;;;;;3.60;3.07;;;27.60;84.50;;;;;;4973192;28;20494;-68
2023/07/03 12:39:27;;;;;;;4.63;2.50;;;27.80;83.50;;;;;;4969291;28;20466;-68
2023/07/03 12:42:06;;;;;;;4.00;2.67;;;28.20;83.10;;;;;;4973211;28;20466;-67
2023/07/03 12:44:33;;;;;;;4.67;3.60;;;28.50;81.90;;;;;;4972238;28;20521;-67
2023/07/03 12:47:09;;;;;;;4.50;2.80;;;28.50;81.00;;;;;;4963974;28;20541;-67
2023/07/03 12:49:58;;;;;;;5.57;3.30;;;28.80;80.60;;;;;;4973530;28;20465;-68